Terminal Aerodrome Forecast
Issued by NWS Lubbock, TX

Home | Current Version | Previous Version | Text Only | Print | Product List | Glossary On
Versions: 1 2 3 4 5 6 7 8 9 10 11 12 13 14
677
FTUS44 KLUB 271720
TAFLBB
TAF
KLBB 271720Z 2718/2818 12009KT P6SM FEW250
     FM280900 12011KT P6SM SCT200 WS020/15040KT
     FM281100 13011KT P6SM BKN008=

USA.gov is the U.S. government's official web portal to all federal, state and local government web resources and services.